sensor_id;sensor_type;location;lat;lon;timestamp;P1;durP1;ratioP1;P2;durP2;ratioP2
33844;SDS011;20145;43.118;25.694;2023-09-19T00:00:42;4.78;;;4.38;;
33844;SDS011;20145;43.118;25.694;2023-09-19T00:03:09;4.75;;;4.30;;
33844;SDS011;20145;43.118;25.694;2023-09-19T00:05:37;5.70;;;5.10;;
33844;SDS011;20145;43.118;25.694;2023-09-19T00:08:03;5.30;;;4.80;;
33844;SDS011;20145;43.118;25.694;2023-09-19T00:10:29;6.35;;;4.78;;
33844;SDS011;20145;43.118;25.694;2023-09-19T00:13:00;8.80;;;4.70;;
33844;SDS011;20145;43.118;25.694;2023-09-19T00:15:31;5.73;;;4.50;;
33844;SDS011;20145;43.118;25.694;2023-09-19T00:18:02;6.22;;;4.28;;
33844;SDS011;20145;43.118;25.694;2023-09-19T00:20:29;7.53;;;4.18;;
33844;SDS011;20145;43.118;25.694;2023-09-19T00:22:55;4.72;;;4.25;;
33844;SDS011;20145;43.118;25.694;2023-09-19T00:25:20;4.88;;;3.97;;
33844;SDS011;20145;43.118;25.694;2023-09-19T00:27:46;7.32;;;4.70;;
33844;SDS011;20145;43.118;25.694;2023-09-19T00:30:16;5.80;;;4.82;;
33844;SDS011;20145;43.118;25.694;2023-09-19T00:32:46;5.93;;;4.50;;
33844;SDS011;20145;43.118;25.694;2023-09-19T00:35:13;5.35;;;4.65;;
33844;SDS011;20145;43.118;25.694;2023-09-19T00:37:40;5.18;;;4.40;;
33844;SDS011;20145;43.118;25.694;2023-09-19T00:40:07;5.15;;;4.68;;
33844;SDS011;20145;43.118;25.694;2023-09-19T00:42:52;4.95;;;4.03;;
33844;SDS011;20145;43.118;25.694;2023-09-19T00:45:25;6.60;;;4.60;;
33844;SDS011;20145;43.118;25.694;2023-09-19T00:47:51;4.78;;;4.38;;
33844;SDS011;20145;43.118;25.694;2023-09-19T00:50:17;5.00;;;4.53;;
33844;SDS011;20145;43.118;25.694;2023-09-19T00:52:44;5.07;;;4.57;;
33844;SDS011;20145;43.118;25.694;2023-09-19T00:55:12;6.80;;;4.47;;
33844;SDS011;20145;43.118;25.694;2023-09-19T00:57:39;5.60;;;5.10;;
33844;SDS011;20145;43.118;25.694;2023-09-19T01:00:06;5.18;;;4.68;;
33844;SDS011;20145;43.118;25.694;2023-09-19T01:02:36;5.28;;;4.75;;
33844;SDS011;20145;43.118;25.694;2023-09-19T01:05:02;6.05;;;4.47;;
33844;SDS011;20145;43.118;25.694;2023-09-19T01:07:30;6.03;;;4.65;;
33844;SDS011;20145;43.118;25.694;2023-09-19T01:09:57;5.80;;;4.90;;
33844;SDS011;20145;43.118;25.694;2023-09-19T01:15:27;5.45;;;4.75;;
33844;SDS011;20145;43.118;25.694;2023-09-19T01:18:02;9.55;;;5.45;;
33844;SDS011;20145;43.118;25.694;2023-09-19T01:21:01;7.22;;;4.40;;
33844;SDS011;20145;43.118;25.694;2023-09-19T01:32:01;5.88;;;4.50;;
33844;SDS011;20145;43.118;25.694;2023-09-19T01:34:45;7.05;;;5.00;;
33844;SDS011;20145;43.118;25.694;2023-09-19T01:37:17;6.28;;;4.20;;
33844;SDS011;20145;43.118;25.694;2023-09-19T01:39:55;5.30;;;4.40;;
33844;SDS011;20145;43.118;25.694;2023-09-19T01:42:48;5.68;;;4.80;;
33844;SDS011;20145;43.118;25.694;2023-09-19T01:47:54;5.38;;;4.70;;
33844;SDS011;20145;43.118;25.694;2023-09-19T01:53:10;4.85;;;4.40;;
33844;SDS011;20145;43.118;25.694;2023-09-19T01:55:47;6.07;;;4.95;;
33844;SDS011;20145;43.118;25.694;2023-09-19T02:01:00;5.43;;;5.03;;
33844;SDS011;20145;43.118;25.694;2023-09-19T02:03:26;5.72;;;5.10;;
33844;SDS011;20145;43.118;25.694;2023-09-19T02:05:54;6.25;;;4.47;;
33844;SDS011;20145;43.118;25.694;2023-09-19T02:08:20;6.40;;;4.93;;
33844;SDS011;20145;43.118;25.694;2023-09-19T02:10:50;4.90;;;4.45;;
33844;SDS011;20145;43.118;25.694;2023-09-19T02:13:18;6.43;;;4.32;;
33844;SDS011;20145;43.118;25.694;2023-09-19T02:15:45;4.63;;;4.18;;
33844;SDS011;20145;43.118;25.694;2023-09-19T02:18:11;5.75;;;5.13;;
33844;SDS011;20145;43.118;25.694;2023-09-19T02:20:38;5.22;;;4.75;;
33844;SDS011;20145;43.118;25.694;2023-09-19T02:23:04;8.00;;;5.00;;
33844;SDS011;20145;43.118;25.694;2023-09-19T02:25:30;6.22;;;5.63;;
33844;SDS011;20145;43.118;25.694;2023-09-19T02:27:57;5.38;;;4.40;;
33844;SDS011;20145;43.118;25.694;2023-09-19T02:30:24;6.15;;;4.63;;
33844;SDS011;20145;43.118;25.694;2023-09-19T02:32:53;5.10;;;4.65;;
33844;SDS011;20145;43.118;25.694;2023-09-19T02:35:18;6.88;;;4.72;;
33844;SDS011;20145;43.118;25.694;2023-09-19T02:37:48;6.53;;;4.35;;
33844;SDS011;20145;43.118;25.694;2023-09-19T02:40:14;5.10;;;4.60;;
33844;SDS011;20145;43.118;25.694;2023-09-19T02:42:54;7.28;;;4.28;;
33844;SDS011;20145;43.118;25.694;2023-09-19T02:45:21;4.90;;;4.38;;
33844;SDS011;20145;43.118;25.694;2023-09-19T02:47:47;5.65;;;5.05;;
33844;SDS011;20145;43.118;25.694;2023-09-19T02:50:13;7.30;;;5.07;;
33844;SDS011;20145;43.118;25.694;2023-09-19T02:52:41;4.75;;;4.10;;
33844;SDS011;20145;43.118;25.694;2023-09-19T02:55:12;5.03;;;4.30;;
33844;SDS011;20145;43.118;25.694;2023-09-19T02:57:45;4.50;;;4.10;;
33844;SDS011;20145;43.118;25.694;2023-09-19T03:00:12;5.45;;;4.95;;
33844;SDS011;20145;43.118;25.694;2023-09-19T03:02:38;5.78;;;4.60;;
33844;SDS011;20145;43.118;25.694;2023-09-19T03:05:06;5.07;;;4.57;;
33844;SDS011;20145;43.118;25.694;2023-09-19T03:07:32;9.45;;;5.55;;
33844;SDS011;20145;43.118;25.694;2023-09-19T03:09:58;6.53;;;4.50;;
33844;SDS011;20145;43.118;25.694;2023-09-19T03:12:25;5.40;;;4.82;;
33844;SDS011;20145;43.118;25.694;2023-09-19T03:14:52;5.00;;;4.38;;
33844;SDS011;20145;43.118;25.694;2023-09-19T03:17:17;4.95;;;4.40;;
33844;SDS011;20145;43.118;25.694;2023-09-19T03:19:45;5.60;;;4.28;;
33844;SDS011;20145;43.118;25.694;2023-09-19T03:22:12;4.97;;;4.22;;
33844;SDS011;20145;43.118;25.694;2023-09-19T03:24:39;5.47;;;4.30;;
33844;SDS011;20145;43.118;25.694;2023-09-19T03:27:05;5.57;;;4.55;;
33844;SDS011;20145;43.118;25.694;2023-09-19T03:29:30;5.45;;;4.10;;
33844;SDS011;20145;43.118;25.694;2023-09-19T03:31:56;6.57;;;4.57;;
33844;SDS011;20145;43.118;25.694;2023-09-19T03:34:22;5.53;;;4.95;;
33844;SDS011;20145;43.118;25.694;2023-09-19T03:36:47;5.28;;;4.78;;
33844;SDS011;20145;43.118;25.694;2023-09-19T03:39:13;5.32;;;4.82;;
33844;SDS011;20145;43.118;25.694;2023-09-19T03:41:40;5.90;;;5.00;;
33844;SDS011;20145;43.118;25.694;2023-09-19T03:44:06;6.45;;;4.47;;
33844;SDS011;20145;43.118;25.694;2023-09-19T03:46:32;9.45;;;5.05;;
33844;SDS011;20145;43.118;25.694;2023-09-19T03:49:00;4.72;;;4.32;;
33844;SDS011;20145;43.118;25.694;2023-09-19T03:51:26;5.50;;;4.45;;
33844;SDS011;20145;43.118;25.694;2023-09-19T03:53:51;5.05;;;4.38;;
33844;SDS011;20145;43.118;25.694;2023-09-19T03:56:17;5.20;;;4.70;;
33844;SDS011;20145;43.118;25.694;2023-09-19T03:58:43;8.63;;;5.72;;
33844;SDS011;20145;43.118;25.694;2023-09-19T04:01:08;8.82;;;4.80;;
33844;SDS011;20145;43.118;25.694;2023-09-19T04:03:34;7.50;;;4.72;;
33844;SDS011;20145;43.118;25.694;2023-09-19T04:06:11;9.00;;;5.18;;
33844;SDS011;20145;43.118;25.694;2023-09-19T04:08:40;10.75;;;4.78;;
33844;SDS011;20145;43.118;25.694;2023-09-19T04:11:06;7.22;;;4.57;;
33844;SDS011;20145;43.118;25.694;2023-09-19T04:13:32;9.30;;;5.05;;
33844;SDS011;20145;43.118;25.694;2023-09-19T04:15:58;8.60;;;5.70;;
33844;SDS011;20145;43.118;25.694;2023-09-19T04:18:25;7.57;;;4.30;;
33844;SDS011;20145;43.118;25.694;2023-09-19T04:20:51;6.72;;;4.55;;
33844;SDS011;20145;43.118;25.694;2023-09-19T04:23:17;6.68;;;4.68;;
33844;SDS011;20145;43.118;25.694;2023-09-19T04:25:45;7.60;;;5.18;;
33844;SDS011;20145;43.118;25.694;2023-09-19T04:28:10;14.38;;;5.60;;
33844;SDS011;20145;43.118;25.694;2023-09-19T04:30:39;12.73;;;4.97;;
33844;SDS011;20145;43.118;25.694;2023-09-19T04:33:07;5.93;;;4.57;;
33844;SDS011;20145;43.118;25.694;2023-09-19T04:35:33;10.07;;;6.00;;
33844;SDS011;20145;43.118;25.694;2023-09-19T04:38:00;13.93;;;8.73;;
33844;SDS011;20145;43.118;25.694;2023-09-19T04:40:26;12.75;;;6.75;;
33844;SDS011;20145;43.118;25.694;2023-09-19T04:42:54;8.75;;;6.20;;
33844;SDS011;20145;43.118;25.694;2023-09-19T04:45:24;11.65;;;7.30;;
33844;SDS011;20145;43.118;25.694;2023-09-19T04:47:50;15.80;;;6.10;;
33844;SDS011;20145;43.118;25.694;2023-09-19T04:50:15;9.70;;;7.63;;
33844;SDS011;20145;43.118;25.694;2023-09-19T04:52:42;12.45;;;9.18;;
33844;SDS011;20145;43.118;25.694;2023-09-19T04:55:15;14.05;;;8.75;;
33844;SDS011;20145;43.118;25.694;2023-09-19T04:57:44;14.98;;;8.85;;
33844;SDS011;20145;43.118;25.694;2023-09-19T05:00:12;18.40;;;8.20;;
33844;SDS011;20145;43.118;25.694;2023-09-19T05:02:51;19.42;;;8.20;;
33844;SDS011;20145;43.118;25.694;2023-09-19T05:05:20;17.90;;;9.13;;
33844;SDS011;20145;43.118;25.694;2023-09-19T05:07:47;11.38;;;9.15;;
33844;SDS011;20145;43.118;25.694;2023-09-19T05:10:13;14.65;;;8.45;;
33844;SDS011;20145;43.118;25.694;2023-09-19T05:12:39;7.63;;;6.07;;
33844;SDS011;20145;43.118;25.694;2023-09-19T05:15:06;16.83;;;9.82;;
33844;SDS011;20145;43.118;25.694;2023-09-19T05:17:33;23.88;;;11.07;;
33844;SDS011;20145;43.118;25.694;2023-09-19T05:20:00;14.13;;;9.32;;
33844;SDS011;20145;43.118;25.694;2023-09-19T05:22:40;15.70;;;9.38;;
33844;SDS011;20145;43.118;25.694;2023-09-19T05:25:06;13.80;;;9.13;;
33844;SDS011;20145;43.118;25.694;2023-09-19T05:27:32;14.25;;;9.15;;
33844;SDS011;20145;43.118;25.694;2023-09-19T05:29:58;17.25;;;9.27;;
33844;SDS011;20145;43.118;25.694;2023-09-19T05:32:24;15.30;;;8.75;;
33844;SDS011;20145;43.118;25.694;2023-09-19T05:34:50;19.88;;;12.15;;
33844;SDS011;20145;43.118;25.694;2023-09-19T05:37:21;13.13;;;10.35;;
33844;SDS011;20145;43.118;25.694;2023-09-19T05:39:48;14.15;;;10.35;;
33844;SDS011;20145;43.118;25.694;2023-09-19T05:42:14;16.35;;;10.18;;
33844;SDS011;20145;43.118;25.694;2023-09-19T05:44:39;16.90;;;10.05;;
33844;SDS011;20145;43.118;25.694;2023-09-19T05:47:05;17.27;;;10.80;;
33844;SDS011;20145;43.118;25.694;2023-09-19T05:49:34;11.98;;;10.68;;
33844;SDS011;20145;43.118;25.694;2023-09-19T05:52:04;11.95;;;10.13;;
33844;SDS011;20145;43.118;25.694;2023-09-19T05:54:30;14.02;;;9.50;;
33844;SDS011;20145;43.118;25.694;2023-09-19T05:56:56;10.80;;;9.35;;
33844;SDS011;20145;43.118;25.694;2023-09-19T05:59:23;10.68;;;8.10;;
33844;SDS011;20145;43.118;25.694;2023-09-19T06:01:49;9.93;;;8.50;;
33844;SDS011;20145;43.118;25.694;2023-09-19T06:04:14;12.55;;;7.07;;
33844;SDS011;20145;43.118;25.694;2023-09-19T06:06:40;8.73;;;5.57;;
33844;SDS011;20145;43.118;25.694;2023-09-19T06:09:06;8.60;;;6.20;;
33844;SDS011;20145;43.118;25.694;2023-09-19T06:11:35;7.75;;;6.25;;
33844;SDS011;20145;43.118;25.694;2023-09-19T06:14:01;8.02;;;6.20;;
33844;SDS011;20145;43.118;25.694;2023-09-19T06:16:28;6.40;;;5.80;;
33844;SDS011;20145;43.118;25.694;2023-09-19T06:18:54;9.48;;;5.05;;
33844;SDS011;20145;43.118;25.694;2023-09-19T06:21:23;7.90;;;5.60;;
33844;SDS011;20145;43.118;25.694;2023-09-19T06:23:49;7.57;;;5.88;;
33844;SDS011;20145;43.118;25.694;2023-09-19T06:26:15;10.27;;;5.43;;
33844;SDS011;20145;43.118;25.694;2023-09-19T06:28:40;7.68;;;5.05;;
33844;SDS011;20145;43.118;25.694;2023-09-19T06:31:06;9.10;;;5.68;;
33844;SDS011;20145;43.118;25.694;2023-09-19T06:33:37;7.47;;;6.43;;
33844;SDS011;20145;43.118;25.694;2023-09-19T06:36:06;8.98;;;5.25;;
33844;SDS011;20145;43.118;25.694;2023-09-19T06:38:32;7.50;;;4.70;;
33844;SDS011;20145;43.118;25.694;2023-09-19T06:41:02;6.43;;;4.88;;
33844;SDS011;20145;43.118;25.694;2023-09-19T06:43:32;8.73;;;5.40;;
33844;SDS011;20145;43.118;25.694;2023-09-19T06:45:59;11.35;;;5.15;;
33844;SDS011;20145;43.118;25.694;2023-09-19T06:48:25;7.15;;;4.78;;
33844;SDS011;20145;43.118;25.694;2023-09-19T06:50:54;10.27;;;4.60;;
33844;SDS011;20145;43.118;25.694;2023-09-19T06:53:21;6.47;;;4.38;;
33844;SDS011;20145;43.118;25.694;2023-09-19T06:55:49;5.05;;;4.20;;
33844;SDS011;20145;43.118;25.694;2023-09-19T06:58:18;5.68;;;4.15;;
33844;SDS011;20145;43.118;25.694;2023-09-19T07:00:45;5.95;;;4.30;;
33844;SDS011;20145;43.118;25.694;2023-09-19T07:03:11;7.80;;;4.00;;
33844;SDS011;20145;43.118;25.694;2023-09-19T07:05:39;6.97;;;4.13;;
33844;SDS011;20145;43.118;25.694;2023-09-19T07:08:06;5.20;;;4.40;;
33844;SDS011;20145;43.118;25.694;2023-09-19T07:10:33;4.88;;;4.18;;
33844;SDS011;20145;43.118;25.694;2023-09-19T07:12:59;6.50;;;4.35;;
33844;SDS011;20145;43.118;25.694;2023-09-19T07:15:26;6.55;;;4.28;;
33844;SDS011;20145;43.118;25.694;2023-09-19T07:17:52;6.55;;;4.38;;
33844;SDS011;20145;43.118;25.694;2023-09-19T07:20:19;6.22;;;4.60;;
33844;SDS011;20145;43.118;25.694;2023-09-19T07:22:45;9.50;;;4.13;;
33844;SDS011;20145;43.118;25.694;2023-09-19T07:25:13;6.85;;;4.30;;
33844;SDS011;20145;43.118;25.694;2023-09-19T07:27:40;5.28;;;4.35;;
33844;SDS011;20145;43.118;25.694;2023-09-19T07:30:06;6.43;;;4.18;;
33844;SDS011;20145;43.118;25.694;2023-09-19T07:32:33;5.72;;;4.15;;
33844;SDS011;20145;43.118;25.694;2023-09-19T07:35:02;4.95;;;3.88;;
33844;SDS011;20145;43.118;25.694;2023-09-19T07:37:29;5.20;;;4.28;;
33844;SDS011;20145;43.118;25.694;2023-09-19T07:39:56;5.90;;;4.13;;
33844;SDS011;20145;43.118;25.694;2023-09-19T07:42:22;5.88;;;4.50;;
33844;SDS011;20145;43.118;25.694;2023-09-19T07:44:47;6.15;;;4.05;;
33844;SDS011;20145;43.118;25.694;2023-09-19T07:47:15;5.15;;;3.47;;
33844;SDS011;20145;43.118;25.694;2023-09-19T07:49:41;5.18;;;4.13;;
33844;SDS011;20145;43.118;25.694;2023-09-19T07:52:08;12.93;;;4.07;;
33844;SDS011;20145;43.118;25.694;2023-09-19T07:54:35;6.10;;;4.45;;
33844;SDS011;20145;43.118;25.694;2023-09-19T07:57:01;5.60;;;4.22;;
33844;SDS011;20145;43.118;25.694;2023-09-19T07:59:27;8.02;;;4.07;;
33844;SDS011;20145;43.118;25.694;2023-09-19T08:01:53;4.57;;;3.95;;
33844;SDS011;20145;43.118;25.694;2023-09-19T08:04:19;10.90;;;4.10;;
33844;SDS011;20145;43.118;25.694;2023-09-19T08:06:45;9.23;;;4.13;;
33844;SDS011;20145;43.118;25.694;2023-09-19T08:09:11;5.45;;;3.90;;
33844;SDS011;20145;43.118;25.694;2023-09-19T08:11:39;11.20;;;4.00;;
33844;SDS011;20145;43.118;25.694;2023-09-19T08:14:04;6.15;;;5.03;;
33844;SDS011;20145;43.118;25.694;2023-09-19T08:16:32;6.93;;;4.00;;
33844;SDS011;20145;43.118;25.694;2023-09-19T08:18:58;13.15;;;4.18;;
33844;SDS011;20145;43.118;25.694;2023-09-19T08:21:23;4.32;;;3.80;;
33844;SDS011;20145;43.118;25.694;2023-09-19T08:23:51;5.25;;;4.75;;
33844;SDS011;20145;43.118;25.694;2023-09-19T08:26:16;4.60;;;3.63;;
33844;SDS011;20145;43.118;25.694;2023-09-19T08:28:42;6.78;;;4.03;;
33844;SDS011;20145;43.118;25.694;2023-09-19T08:31:08;4.03;;;3.38;;
33844;SDS011;20145;43.118;25.694;2023-09-19T08:33:36;5.00;;;3.58;;
33844;SDS011;20145;43.118;25.694;2023-09-19T08:36:03;5.30;;;3.22;;
33844;SDS011;20145;43.118;25.694;2023-09-19T08:38:30;5.50;;;3.30;;
33844;SDS011;20145;43.118;25.694;2023-09-19T08:40:58;6.65;;;3.75;;
33844;SDS011;20145;43.118;25.694;2023-09-19T08:43:27;4.88;;;3.50;;
33844;SDS011;20145;43.118;25.694;2023-09-19T08:45:56;5.13;;;3.38;;
33844;SDS011;20145;43.118;25.694;2023-09-19T08:48:29;3.40;;;3.08;;
33844;SDS011;20145;43.118;25.694;2023-09-19T08:56:18;3.92;;;3.17;;
33844;SDS011;20145;43.118;25.694;2023-09-19T08:58:46;6.30;;;3.47;;
33844;SDS011;20145;43.118;25.694;2023-09-19T09:03:49;4.57;;;3.03;;
33844;SDS011;20145;43.118;25.694;2023-09-19T09:06:17;4.53;;;3.38;;
33844;SDS011;20145;43.118;25.694;2023-09-19T09:08:45;5.45;;;3.35;;
33844;SDS011;20145;43.118;25.694;2023-09-19T09:11:12;4.65;;;3.15;;
33844;SDS011;20145;43.118;25.694;2023-09-19T09:13:39;5.80;;;3.33;;
33844;SDS011;20145;43.118;25.694;2023-09-19T09:16:06;6.82;;;2.90;;
33844;SDS011;20145;43.118;25.694;2023-09-19T09:18:32;3.58;;;2.65;;
33844;SDS011;20145;43.118;25.694;2023-09-19T09:20:58;3.25;;;2.95;;
33844;SDS011;20145;43.118;25.694;2023-09-19T09:23:24;4.40;;;3.63;;
33844;SDS011;20145;43.118;25.694;2023-09-19T09:25:55;3.97;;;3.20;;
33844;SDS011;20145;43.118;25.694;2023-09-19T09:28:27;4.03;;;2.67;;
33844;SDS011;20145;43.118;25.694;2023-09-19T09:30:56;6.70;;;3.05;;
33844;SDS011;20145;43.118;25.694;2023-09-19T09:33:23;5.65;;;3.22;;
33844;SDS011;20145;43.118;25.694;2023-09-19T09:35:53;3.88;;;2.70;;
33844;SDS011;20145;43.118;25.694;2023-09-19T09:38:27;5.35;;;3.30;;
33844;SDS011;20145;43.118;25.694;2023-09-19T09:40:57;3.95;;;2.50;;
33844;SDS011;20145;43.118;25.694;2023-09-19T09:46:07;6.18;;;3.03;;
33844;SDS011;20145;43.118;25.694;2023-09-19T09:49:00;4.40;;;3.00;;
33844;SDS011;20145;43.118;25.694;2023-09-19T09:51:39;3.17;;;2.83;;
33844;SDS011;20145;43.118;25.694;2023-09-19T09:54:17;4.28;;;3.35;;
33844;SDS011;20145;43.118;25.694;2023-09-19T10:02:19;3.17;;;2.85;;
33844;SDS011;20145;43.118;25.694;2023-09-19T10:04:55;3.97;;;2.80;;
33844;SDS011;20145;43.118;25.694;2023-09-19T10:07:49;3.83;;;3.33;;
33844;SDS011;20145;43.118;25.694;2023-09-19T10:13:24;2.97;;;2.60;;
33844;SDS011;20145;43.118;25.694;2023-09-19T10:15:54;3.45;;;3.15;;
33844;SDS011;20145;43.118;25.694;2023-09-19T10:18:26;3.65;;;2.85;;
33844;SDS011;20145;43.118;25.694;2023-09-19T10:20:54;4.50;;;3.30;;
33844;SDS011;20145;43.118;25.694;2023-09-19T10:23:22;6.40;;;3.17;;
33844;SDS011;20145;43.118;25.694;2023-09-19T10:25:48;5.68;;;2.88;;
33844;SDS011;20145;43.118;25.694;2023-09-19T10:28:15;3.38;;;2.50;;
33844;SDS011;20145;43.118;25.694;2023-09-19T10:30:47;4.25;;;2.75;;
33844;SDS011;20145;43.118;25.694;2023-09-19T10:33:15;4.72;;;2.78;;
33844;SDS011;20145;43.118;25.694;2023-09-19T10:35:46;7.82;;;2.60;;
33844;SDS011;20145;43.118;25.694;2023-09-19T10:38:15;5.32;;;3.15;;
33844;SDS011;20145;43.118;25.694;2023-09-19T10:40:50;2.92;;;2.63;;
33844;SDS011;20145;43.118;25.694;2023-09-19T10:43:19;5.97;;;2.80;;
33844;SDS011;20145;43.118;25.694;2023-09-19T10:45:46;3.33;;;2.67;;
33844;SDS011;20145;43.118;25.694;2023-09-19T10:48:17;6.05;;;2.60;;
33844;SDS011;20145;43.118;25.694;2023-09-19T10:53:20;4.95;;;2.78;;
33844;SDS011;20145;43.118;25.694;2023-09-19T10:55:50;4.25;;;2.50;;
33844;SDS011;20145;43.118;25.694;2023-09-19T10:58:29;7.68;;;2.90;;
33844;SDS011;20145;43.118;25.694;2023-09-19T11:00:59;3.97;;;2.65;;
33844;SDS011;20145;43.118;25.694;2023-09-19T11:03:33;3.88;;;2.95;;
33844;SDS011;20145;43.118;25.694;2023-09-19T11:06:17;3.28;;;2.78;;
33844;SDS011;20145;43.118;25.694;2023-09-19T11:08:57;3.45;;;2.55;;
33844;SDS011;20145;43.118;25.694;2023-09-19T11:14:15;4.10;;;2.53;;
33844;SDS011;20145;43.118;25.694;2023-09-19T11:30:37;3.92;;;2.55;;
33844;SDS011;20145;43.118;25.694;2023-09-19T11:33:19;3.58;;;2.80;;
33844;SDS011;20145;43.118;25.694;2023-09-19T11:35:59;4.97;;;2.90;;
33844;SDS011;20145;43.118;25.694;2023-09-19T11:49:16;4.72;;;3.20;;
33844;SDS011;20145;43.118;25.694;2023-09-19T11:51:50;3.97;;;2.40;;
33844;SDS011;20145;43.118;25.694;2023-09-19T11:54:16;6.35;;;2.65;;
33844;SDS011;20145;43.118;25.694;2023-09-19T11:56:53;5.47;;;3.30;;
33844;SDS011;20145;43.118;25.694;2023-09-19T11:59:20;3.83;;;2.80;;
33844;SDS011;20145;43.118;25.694;2023-09-19T12:01:53;5.55;;;2.70;;
33844;SDS011;20145;43.118;25.694;2023-09-19T12:07:10;2.85;;;2.40;;
33844;SDS011;20145;43.118;25.694;2023-09-19T12:09:50;3.50;;;2.60;;
33844;SDS011;20145;43.118;25.694;2023-09-19T12:12:29;2.70;;;2.50;;
33844;SDS011;20145;43.118;25.694;2023-09-19T12:14:55;3.58;;;2.58;;
33844;SDS011;20145;43.118;25.694;2023-09-19T12:17:35;3.33;;;2.50;;
33844;SDS011;20145;43.118;25.694;2023-09-19T12:20:01;3.90;;;2.45;;
33844;SDS011;20145;43.118;25.694;2023-09-19T12:22:43;3.10;;;2.50;;
33844;SDS011;20145;43.118;25.694;2023-09-19T12:27:43;4.88;;;2.63;;
33844;SDS011;20145;43.118;25.694;2023-09-19T12:30:12;7.35;;;3.08;;
33844;SDS011;20145;43.118;25.694;2023-09-19T12:32:44;5.57;;;2.63;;
33844;SDS011;20145;43.118;25.694;2023-09-19T12:35:11;4.97;;;2.53;;
33844;SDS011;20145;43.118;25.694;2023-09-19T12:37:54;3.72;;;2.78;;
33844;SDS011;20145;43.118;25.694;2023-09-19T12:40:20;6.22;;;2.78;;
33844;SDS011;20145;43.118;25.694;2023-09-19T12:42:48;4.68;;;3.22;;
33844;SDS011;20145;43.118;25.694;2023-09-19T12:45:15;2.72;;;2.42;;
33844;SDS011;20145;43.118;25.694;2023-09-19T12:53:43;6.82;;;2.60;;
33844;SDS011;20145;43.118;25.694;2023-09-19T12:56:12;3.80;;;2.97;;
33844;SDS011;20145;43.118;25.694;2023-09-19T12:58:56;6.05;;;2.95;;
33844;SDS011;20145;43.118;25.694;2023-09-19T13:01:29;4.13;;;2.88;;
33844;SDS011;20145;43.118;25.694;2023-09-19T13:04:11;6.40;;;2.72;;
33844;SDS011;20145;43.118;25.694;2023-09-19T13:07:00;2.97;;;2.58;;
33844;SDS011;20145;43.118;25.694;2023-09-19T13:09:26;9.63;;;3.50;;
33844;SDS011;20145;43.118;25.694;2023-09-19T13:12:04;12.57;;;3.80;;
33844;SDS011;20145;43.118;25.694;2023-09-19T13:14:32;3.63;;;2.70;;
33844;SDS011;20145;43.118;25.694;2023-09-19T13:17:06;11.52;;;4.43;;
33844;SDS011;20145;43.118;25.694;2023-09-19T13:25:20;5.72;;;3.20;;
33844;SDS011;20145;43.118;25.694;2023-09-19T13:27:47;2.88;;;2.58;;
33844;SDS011;20145;43.118;25.694;2023-09-19T13:30:17;8.23;;;3.53;;
33844;SDS011;20145;43.118;25.694;2023-09-19T13:32:44;3.97;;;2.80;;
33844;SDS011;20145;43.118;25.694;2023-09-19T13:35:12;5.35;;;3.08;;
33844;SDS011;20145;43.118;25.694;2023-09-19T13:37:40;3.67;;;2.90;;
33844;SDS011;20145;43.118;25.694;2023-09-19T13:40:10;26.70;;;7.55;;
33844;SDS011;20145;43.118;25.694;2023-09-19T13:42:37;6.70;;;2.90;;
33844;SDS011;20145;43.118;25.694;2023-09-19T13:45:03;7.25;;;2.85;;
33844;SDS011;20145;43.118;25.694;2023-09-19T13:47:30;4.82;;;2.95;;
33844;SDS011;20145;43.118;25.694;2023-09-19T13:49:57;4.30;;;3.08;;
33844;SDS011;20145;43.118;25.694;2023-09-19T13:52:29;12.63;;;4.05;;
33844;SDS011;20145;43.118;25.694;2023-09-19T13:54:55;6.43;;;2.80;;
33844;SDS011;20145;43.118;25.694;2023-09-19T13:57:25;5.88;;;3.03;;
33844;SDS011;20145;43.118;25.694;2023-09-19T13:59:51;6.97;;;3.15;;
33844;SDS011;20145;43.118;25.694;2023-09-19T14:02:19;8.63;;;3.00;;
33844;SDS011;20145;43.118;25.694;2023-09-19T14:04:48;6.38;;;2.80;;
33844;SDS011;20145;43.118;25.694;2023-09-19T14:07:14;14.35;;;5.32;;
33844;SDS011;20145;43.118;25.694;2023-09-19T14:09:41;6.97;;;3.25;;
33844;SDS011;20145;43.118;25.694;2023-09-19T14:12:07;11.15;;;3.53;;
33844;SDS011;20145;43.118;25.694;2023-09-19T14:14:33;10.27;;;3.47;;
33844;SDS011;20145;43.118;25.694;2023-09-19T14:16:58;4.93;;;3.03;;
33844;SDS011;20145;43.118;25.694;2023-09-19T14:19:26;19.15;;;4.20;;
33844;SDS011;20145;43.118;25.694;2023-09-19T14:21:52;5.10;;;3.40;;
33844;SDS011;20145;43.118;25.694;2023-09-19T14:24:20;7.75;;;2.80;;
33844;SDS011;20145;43.118;25.694;2023-09-19T14:26:47;7.50;;;2.47;;
33844;SDS011;20145;43.118;25.694;2023-09-19T14:29:14;10.02;;;3.17;;
33844;SDS011;20145;43.118;25.694;2023-09-19T14:31:40;2.47;;;2.28;;
33844;SDS011;20145;43.118;25.694;2023-09-19T14:34:07;4.65;;;2.78;;
33844;SDS011;20145;43.118;25.694;2023-09-19T14:36:35;24.45;;;4.32;;
33844;SDS011;20145;43.118;25.694;2023-09-19T14:39:02;8.10;;;2.78;;
33844;SDS011;20145;43.118;25.694;2023-09-19T14:41:27;8.85;;;3.67;;
33844;SDS011;20145;43.118;25.694;2023-09-19T14:43:53;3.67;;;2.42;;
33844;SDS011;20145;43.118;25.694;2023-09-19T14:46:20;11.75;;;3.30;;
33844;SDS011;20145;43.118;25.694;2023-09-19T14:48:46;6.80;;;3.13;;
33844;SDS011;20145;43.118;25.694;2023-09-19T14:51:12;5.55;;;2.92;;
33844;SDS011;20145;43.118;25.694;2023-09-19T14:53:39;3.67;;;3.05;;
33844;SDS011;20145;43.118;25.694;2023-09-19T14:56:07;3.88;;;2.50;;
33844;SDS011;20145;43.118;25.694;2023-09-19T14:58:33;3.15;;;2.60;;
33844;SDS011;20145;43.118;25.694;2023-09-19T15:01:03;6.93;;;3.30;;
33844;SDS011;20145;43.118;25.694;2023-09-19T15:03:30;4.20;;;3.00;;
33844;SDS011;20145;43.118;25.694;2023-09-19T15:06:00;9.40;;;3.20;;
33844;SDS011;20145;43.118;25.694;2023-09-19T15:08:26;12.50;;;3.17;;
33844;SDS011;20145;43.118;25.694;2023-09-19T15:10:52;7.85;;;3.20;;
33844;SDS011;20145;43.118;25.694;2023-09-19T15:13:19;7.78;;;3.65;;
33844;SDS011;20145;43.118;25.694;2023-09-19T15:15:45;3.08;;;2.50;;
33844;SDS011;20145;43.118;25.694;2023-09-19T15:18:13;4.13;;;2.80;;
33844;SDS011;20145;43.118;25.694;2023-09-19T15:20:43;3.80;;;3.25;;
33844;SDS011;20145;43.118;25.694;2023-09-19T15:23:09;5.30;;;2.83;;
33844;SDS011;20145;43.118;25.694;2023-09-19T15:25:35;7.13;;;2.97;;
33844;SDS011;20145;43.118;25.694;2023-09-19T15:28:00;10.57;;;3.42;;
33844;SDS011;20145;43.118;25.694;2023-09-19T15:30:36;8.60;;;3.35;;
33844;SDS011;20145;43.118;25.694;2023-09-19T15:33:03;7.78;;;3.50;;
33844;SDS011;20145;43.118;25.694;2023-09-19T15:35:29;13.95;;;4.72;;
33844;SDS011;20145;43.118;25.694;2023-09-19T15:37:55;11.90;;;5.22;;
33844;SDS011;20145;43.118;25.694;2023-09-19T15:40:21;13.68;;;4.65;;
33844;SDS011;20145;43.118;25.694;2023-09-19T15:42:49;10.70;;;4.38;;
33844;SDS011;20145;43.118;25.694;2023-09-19T15:45:15;12.40;;;4.05;;
33844;SDS011;20145;43.118;25.694;2023-09-19T15:47:41;12.77;;;4.72;;
33844;SDS011;20145;43.118;25.694;2023-09-19T15:50:08;17.17;;;14.07;;
33844;SDS011;20145;43.118;25.694;2023-09-19T15:52:40;14.55;;;5.30;;
33844;SDS011;20145;43.118;25.694;2023-09-19T15:55:07;11.77;;;4.68;;
33844;SDS011;20145;43.118;25.694;2023-09-19T15:57:34;9.65;;;3.67;;
33844;SDS011;20145;43.118;25.694;2023-09-19T16:00:04;10.77;;;3.55;;
33844;SDS011;20145;43.118;25.694;2023-09-19T16:02:37;6.40;;;3.03;;
33844;SDS011;20145;43.118;25.694;2023-09-19T16:05:03;12.80;;;5.85;;